Time;durP1;ratioP1;P1;durP2;ratioP2;P2;SDS_P1;SDS_P2;PMS_P1;PMS_P2;Temp;Humidity;BMP_temperature;BMP_pressure;BME280_temperature;BME280_humidity;BME280_pressure;Samples;Min_cycle;Max_cycle;Signal;HPM_P1;HPM_P2
2023/06/26 00:01:50;;;;;;;6.93;5.05;;;16.60;99.90;;;;;;5017597;28;20033;-77
2023/06/26 00:04:16;;;;;;;7.63;5.07;;;16.50;99.90;;;;;;5017305;28;20029;-78
2023/06/26 00:06:42;;;;;;;8.20;5.53;;;16.50;99.90;;;;;;5015575;28;20387;-76
2023/06/26 00:09:07;;;;;;;6.50;4.80;;;16.40;99.90;;;;;;5023355;28;20029;-79
2023/06/26 00:11:33;;;;;;;8.65;4.78;;;16.30;99.90;;;;;;5025388;28;20631;-78
2023/06/26 00:14:00;;;;;;;6.10;5.07;;;16.30;99.90;;;;;;5025766;28;20034;-79
2023/06/26 00:16:26;;;;;;;7.78;5.53;;;16.40;99.90;;;;;;5025754;28;20026;-78
2023/06/26 00:18:53;;;;;;;8.38;5.60;;;16.40;99.90;;;;;;5026149;28;20050;-78
2023/06/26 00:21:19;;;;;;;7.78;5.68;;;16.50;99.90;;;;;;5026107;28;20026;-77
2023/06/26 00:23:45;;;;;;;8.27;5.28;;;16.40;99.90;;;;;;5024882;28;20022;-76
2023/06/26 00:26:11;;;;;;;6.90;4.78;;;16.30;99.90;;;;;;5024419;28;20018;-77
2023/06/26 00:28:37;;;;;;;7.35;5.00;;;16.30;99.90;;;;;;5024731;28;20487;-79
2023/06/26 00:31:03;;;;;;;8.82;5.60;;;16.20;99.90;;;;;;5025267;28;20026;-79
2023/06/26 00:33:29;;;;;;;5.70;4.78;;;16.10;99.90;;;;;;5026399;28;20557;-78
2023/06/26 00:35:54;;;;;;;5.80;4.53;;;16.20;99.90;;;;;;5026823;28;20108;-78
2023/06/26 00:38:21;;;;;;;5.93;4.43;;;16.20;99.90;;;;;;5024650;28;20101;-78
2023/06/26 00:40:46;;;;;;;8.38;5.35;;;16.30;99.90;;;;;;5026796;28;20021;-78
2023/06/26 00:43:12;;;;;;;6.90;4.43;;;16.20;99.90;;;;;;5023961;28;20317;-79
2023/06/26 00:45:38;;;;;;;9.70;5.60;;;16.10;99.90;;;;;;5024903;28;20022;-78
2023/06/26 00:48:04;;;;;;;6.80;5.03;;;15.90;99.90;;;;;;5025472;28;20037;-78
2023/06/26 00:50:30;;;;;;;6.63;4.80;;;15.80;99.90;;;;;;5024869;28;20442;-78
2023/06/26 00:53:00;;;;;;;7.38;5.35;;;15.80;99.90;;;;;;5024886;28;20394;-78
2023/06/26 00:55:26;;;;;;;6.90;4.78;;;15.90;99.90;;;;;;5024066;28;20057;-77
2023/06/26 00:57:52;;;;;;;8.65;5.38;;;15.80;99.90;;;;;;5024741;28;20045;-78
2023/06/26 01:00:18;;;;;;;6.95;5.28;;;15.80;99.90;;;;;;5025807;28;20029;-78
2023/06/26 01:02:44;;;;;;;6.10;4.50;;;15.80;99.90;;;;;;5025081;28;20057;-78
2023/06/26 01:05:12;;;;;;;6.25;4.80;;;15.80;99.90;;;;;;5024629;28;20030;-78
2023/06/26 01:07:39;;;;;;;7.10;5.25;;;15.70;99.90;;;;;;5024651;28;20040;-78
2023/06/26 01:10:08;;;;;;;6.72;5.32;;;15.70;99.90;;;;;;5025023;28;20022;-78
2023/06/26 01:12:34;;;;;;;7.90;5.65;;;15.70;99.90;;;;;;5025899;28;20030;-77
2023/06/26 01:15:00;;;;;;;6.70;4.95;;;15.70;99.90;;;;;;5023699;28;20056;-77
2023/06/26 01:17:31;;;;;;;6.88;4.90;;;15.70;99.90;;;;;;5024450;28;20025;-78
2023/06/26 01:20:01;;;;;;;6.80;5.00;;;15.70;99.90;;;;;;5027837;28;20029;-78
2023/06/26 01:22:50;;;;;;;7.85;5.18;;;15.70;99.90;;;;;;5028049;28;20022;-78
2023/06/26 01:25:38;;;;;;;6.68;4.93;;;15.60;99.90;;;;;;5024790;28;20021;-79
2023/06/26 01:28:08;;;;;;;8.23;5.47;;;15.70;99.90;;;;;;5024962;28;20022;-78
2023/06/26 01:30:36;;;;;;;9.40;5.88;;;15.50;99.90;;;;;;5025393;28;20513;-78
2023/06/26 01:33:03;;;;;;;7.22;5.45;;;15.50;99.90;;;;;;5025423;28;20030;-78
2023/06/26 01:35:29;;;;;;;6.75;4.95;;;15.60;99.90;;;;;;5025076;28;20068;-77
2023/06/26 01:38:21;;;;;;;7.45;4.78;;;15.60;99.90;;;;;;5024531;28;20049;-78
2023/06/26 01:40:47;;;;;;;6.85;5.22;;;15.50;99.90;;;;;;5021892;28;20052;-76
2023/06/26 01:43:33;;;;;;;7.75;5.65;;;15.60;99.90;;;;;;5014814;28;20029;-75
2023/06/26 01:46:01;;;;;;;;;;;15.50;99.90;;;;;;5014893;28;20022;-77
2023/06/26 01:48:32;;;;;;;7.85;4.93;;;15.50;99.90;;;;;;5014307;28;20422;-75
2023/06/26 01:50:59;;;;;;;7.38;4.97;;;15.40;99.90;;;;;;5014326;28;20044;-77
2023/06/26 01:53:30;;;;;;;8.00;5.82;;;15.40;99.90;;;;;;5015404;28;20045;-76
2023/06/26 01:56:05;;;;;;;7.03;5.25;;;15.40;99.90;;;;;;5019394;28;20415;-77
2023/06/26 01:58:32;;;;;;;6.25;4.85;;;15.40;99.90;;;;;;5018142;28;20036;-77
2023/06/26 02:00:59;;;;;;;7.93;5.20;;;15.30;99.90;;;;;;5019172;28;20033;-77
2023/06/26 02:03:24;;;;;;;9.15;5.13;;;15.20;99.90;;;;;;5018301;28;20072;-77
2023/06/26 02:05:51;;;;;;;8.48;5.25;;;15.20;99.90;;;;;;5018052;28;20022;-77
2023/06/26 02:08:16;;;;;;;10.88;5.57;;;15.30;99.90;;;;;;5018542;28;20092;-77
2023/06/26 02:10:42;;;;;;;8.52;5.63;;;15.30;99.90;;;;;;5018434;28;20030;-77
2023/06/26 02:13:08;;;;;;;7.13;5.43;;;15.20;99.90;;;;;;5017912;28;20025;-77
2023/06/26 02:15:33;;;;;;;7.05;5.20;;;15.20;99.90;;;;;;5018989;28;20041;-77
2023/06/26 02:17:59;;;;;;;6.75;5.25;;;15.30;99.90;;;;;;5019039;28;20086;-78
2023/06/26 02:20:25;;;;;;;6.78;4.88;;;15.20;99.90;;;;;;5017986;28;20032;-77
2023/06/26 02:22:50;;;;;;;5.47;4.93;;;15.20;99.90;;;;;;5017676;28;20097;-77
2023/06/26 02:25:18;;;;;;;5.70;4.93;;;15.10;99.90;;;;;;5017611;28;20398;-78
2023/06/26 02:27:43;;;;;;;6.13;4.85;;;15.10;99.90;;;;;;5016776;28;20030;-78
2023/06/26 02:30:09;;;;;;;7.20;5.25;;;15.10;99.90;;;;;;5018370;28;20077;-77
2023/06/26 02:32:35;;;;;;;5.82;4.38;;;15.10;99.90;;;;;;5018937;28;20034;-77
2023/06/26 02:35:01;;;;;;;6.35;4.97;;;15.10;99.90;;;;;;5018793;28;20032;-77
2023/06/26 02:37:27;;;;;;;8.95;6.63;;;15.00;99.90;;;;;;5017000;28;20037;-77
2023/06/26 02:39:53;;;;;;;7.82;5.82;;;14.90;99.90;;;;;;5018426;28;20030;-77
2023/06/26 02:42:18;;;;;;;6.93;4.97;;;14.90;99.90;;;;;;5017126;28;20021;-76
2023/06/26 02:44:44;;;;;;;8.63;5.15;;;15.00;99.90;;;;;;5018614;28;20048;-77
2023/06/26 02:47:09;;;;;;;7.53;5.28;;;15.00;99.90;;;;;;5017213;28;20410;-77
2023/06/26 02:49:35;;;;;;;6.20;5.22;;;15.00;99.90;;;;;;5016897;28;20040;-77
2023/06/26 02:52:01;;;;;;;8.57;5.13;;;15.00;99.90;;;;;;5016890;28;20026;-76
2023/06/26 02:54:27;;;;;;;8.07;5.30;;;15.00;99.90;;;;;;5017236;28;20116;-77
2023/06/26 02:56:52;;;;;;;6.60;5.13;;;14.90;99.90;;;;;;5016932;28;20033;-77
2023/06/26 02:59:18;;;;;;;7.65;4.82;;;14.90;99.90;;;;;;5018168;28;20025;-78
2023/06/26 03:01:43;;;;;;;6.70;4.97;;;14.90;99.90;;;;;;5016569;28;20128;-78
2023/06/26 03:04:10;;;;;;;6.25;4.82;;;14.90;99.90;;;;;;5016377;28;20120;-77
2023/06/26 03:06:36;;;;;;;6.65;4.85;;;14.90;99.90;;;;;;5016751;28;20014;-77
2023/06/26 03:09:02;;;;;;;8.32;5.30;;;14.90;99.90;;;;;;5017045;28;20042;-77
2023/06/26 03:11:28;;;;;;;7.57;5.28;;;14.90;99.90;;;;;;5016251;28;20026;-77
2023/06/26 03:13:54;;;;;;;7.38;5.72;;;14.90;99.90;;;;;;5015840;28;20081;-77
2023/06/26 03:16:19;;;;;;;6.32;5.15;;;14.90;99.90;;;;;;5017943;28;20034;-77
2023/06/26 03:18:45;;;;;;;7.43;5.18;;;14.90;99.90;;;;;;5017243;28;20029;-77
2023/06/26 03:21:11;;;;;;;6.95;5.05;;;14.80;99.90;;;;;;5016277;28;20033;-78
2023/06/26 03:23:36;;;;;;;6.82;4.70;;;14.90;99.90;;;;;;5017385;28;20018;-77
2023/06/26 03:26:02;;;;;;;8.55;5.53;;;14.90;99.90;;;;;;5015961;28;20025;-77
2023/06/26 03:28:28;;;;;;;7.32;5.15;;;14.90;99.90;;;;;;5015736;28;20025;-77
2023/06/26 03:30:53;;;;;;;7.70;5.32;;;14.80;99.90;;;;;;5016536;28;20140;-78
2023/06/26 03:33:19;;;;;;;7.35;5.13;;;14.80;99.90;;;;;;5032833;28;20076;-77
2023/06/26 03:35:45;;;;;;;9.65;5.25;;;14.80;99.90;;;;;;5035606;28;20025;-78
2023/06/26 03:38:10;;;;;;;6.15;4.75;;;14.70;99.90;;;;;;5036825;28;20025;-77
2023/06/26 03:40:36;;;;;;;9.70;5.97;;;14.80;99.90;;;;;;5036957;28;20025;-76
2023/06/26 03:43:02;;;;;;;7.32;5.30;;;14.90;99.90;;;;;;5036476;28;20017;-79
2023/06/26 03:45:28;;;;;;;12.20;6.10;;;14.90;99.90;;;;;;5035633;28;20059;-77
2023/06/26 03:47:53;;;;;;;8.02;5.75;;;14.90;99.90;;;;;;5035903;28;20115;-76
2023/06/26 03:50:19;;;;;;;9.38;5.82;;;15.10;99.90;;;;;;5032737;28;20508;-76
2023/06/26 03:52:45;;;;;;;9.30;6.28;;;17.70;99.90;;;;;;5033770;28;20040;-76
2023/06/26 03:55:11;;;;;;;6.57;4.82;;;17.90;99.90;;;;;;5034395;28;20021;-76
2023/06/26 03:57:37;;;;;;;8.27;5.88;;;18.30;99.90;;;;;;5032276;28;20029;-76
2023/06/26 04:00:08;;;;;;;6.70;4.93;;;18.60;99.90;;;;;;5033121;28;20025;-76
2023/06/26 04:02:34;;;;;;;6.38;4.80;;;18.60;99.90;;;;;;5032146;28;20397;-76
2023/06/26 04:05:00;;;;;;;6.05;4.43;;;18.60;99.90;;;;;;5031882;28;20030;-76
2023/06/26 04:07:26;;;;;;;6.28;4.68;;;18.50;99.90;;;;;;5032902;28;20029;-76
2023/06/26 04:09:51;;;;;;;8.65;5.32;;;18.60;99.90;;;;;;5033288;28;20097;-76
2023/06/26 04:12:17;;;;;;;6.70;5.30;;;18.40;99.90;;;;;;5032018;28;20060;-76
2023/06/26 04:14:43;;;;;;;7.50;5.22;;;18.10;99.90;;;;;;5032851;28;20049;-75
2023/06/26 04:17:10;;;;;;;8.50;5.38;;;18.20;99.90;;;;;;5031683;28;20028;-76
2023/06/26 04:19:36;;;;;;;6.60;5.18;;;18.10;99.90;;;;;;5030982;28;20116;-78
2023/06/26 04:22:02;;;;;;;6.35;5.13;;;18.00;99.90;;;;;;5033382;28;20017;-76
2023/06/26 04:24:28;;;;;;;5.65;4.70;;;18.10;99.90;;;;;;5031898;28;20455;-76
2023/06/26 04:26:56;;;;;;;6.38;4.63;;;18.40;99.90;;;;;;5031599;28;20056;-74
2023/06/26 04:29:25;;;;;;;6.45;5.72;;;18.50;99.90;;;;;;5033035;28;20029;-76
2023/06/26 04:31:51;;;;;;;11.05;5.97;;;18.30;99.90;;;;;;5031726;28;20083;-76
2023/06/26 04:34:17;;;;;;;6.57;5.10;;;18.40;99.90;;;;;;5031473;28;20029;-76
2023/06/26 04:36:46;;;;;;;7.57;4.88;;;18.30;99.90;;;;;;5031513;28;20121;-76
2023/06/26 04:39:11;;;;;;;7.82;6.25;;;18.20;99.90;;;;;;5032612;28;20021;-76
2023/06/26 04:41:37;;;;;;;7.05;4.80;;;18.40;99.90;;;;;;5032662;28;20490;-75
2023/06/26 04:44:03;;;;;;;8.10;5.32;;;18.30;99.90;;;;;;5028846;28;20026;-76
2023/06/26 04:46:29;;;;;;;6.68;5.28;;;18.20;99.90;;;;;;5012852;28;20113;-76
2023/06/26 04:48:54;;;;;;;7.55;5.88;;;18.40;99.90;;;;;;5012769;28;20022;-76
2023/06/26 04:51:20;;;;;;;6.95;4.97;;;18.40;99.90;;;;;;5012893;28;20065;-76
2023/06/26 04:53:46;;;;;;;8.00;6.13;;;18.20;99.90;;;;;;5012969;28;20356;-75
2023/06/26 04:56:12;;;;;;;7.38;5.75;;;18.20;99.90;;;;;;5012211;28;20036;-76
2023/06/26 04:58:38;;;;;;;8.00;5.53;;;18.10;99.90;;;;;;5011120;28;20032;-76
2023/06/26 05:01:06;;;;;;;7.75;5.60;;;18.00;99.90;;;;;;5010919;28;20487;-76
2023/06/26 05:03:32;;;;;;;8.43;6.00;;;18.00;99.90;;;;;;5011532;28;20059;-76
2023/06/26 05:05:58;;;;;;;6.82;5.80;;;17.90;99.90;;;;;;5011161;28;20115;-75
2023/06/26 05:08:26;;;;;;;12.27;5.47;;;17.70;99.90;;;;;;5012480;28;20483;-75
2023/06/26 05:10:53;;;;;;;7.95;5.55;;;17.90;99.90;;;;;;5012677;28;20387;-76
2023/06/26 05:13:19;;;;;;;9.23;5.93;;;17.90;99.90;;;;;;5012745;28;20026;-75
2023/06/26 05:15:45;;;;;;;7.38;5.78;;;17.90;99.90;;;;;;5012495;28;20069;-75
2023/06/26 05:18:12;;;;;;;10.50;5.95;;;17.90;99.90;;;;;;5012488;28;20034;-75
2023/06/26 05:20:38;;;;;;;10.52;6.72;;;18.00;99.90;;;;;;5012572;28;20022;-76
2023/06/26 05:23:05;;;;;;;10.05;6.20;;;18.10;99.90;;;;;;5012573;28;20026;-76
2023/06/26 05:25:31;;;;;;;8.40;6.20;;;18.20;99.90;;;;;;5012532;28;20029;-76
2023/06/26 05:27:58;;;;;;;10.00;6.53;;;18.30;99.90;;;;;;5012840;28;20029;-76
2023/06/26 05:30:27;;;;;;;7.22;5.45;;;18.40;99.90;;;;;;5015216;28;20113;-76
2023/06/26 05:32:54;;;;;;;10.20;6.75;;;18.70;99.90;;;;;;5016275;28;20025;-76
2023/06/26 05:35:23;;;;;;;10.70;6.38;;;18.80;99.90;;;;;;5015812;28;20026;-75
2023/06/26 05:37:50;;;;;;;9.07;6.05;;;18.90;99.90;;;;;;5014269;28;20387;-76
2023/06/26 05:40:17;;;;;;;7.70;5.50;;;19.00;99.90;;;;;;5016189;28;20029;-76
2023/06/26 05:42:43;;;;;;;8.65;5.78;;;19.20;99.90;;;;;;5014914;28;20026;-76
2023/06/26 05:45:10;;;;;;;9.50;6.03;;;19.50;99.90;;;;;;5015947;28;20018;-76
2023/06/26 05:47:36;;;;;;;11.88;6.43;;;19.60;99.90;;;;;;5014767;28;20064;-76
2023/06/26 05:50:03;;;;;;;8.05;5.80;;;19.90;99.90;;;;;;5016318;28;20097;-76
2023/06/26 05:52:29;;;;;;;6.90;5.88;;;20.10;99.90;;;;;;5015078;28;20029;-76
2023/06/26 05:54:59;;;;;;;5.93;4.85;;;20.20;99.90;;;;;;5015066;28;20030;-76
2023/06/26 05:57:29;;;;;;;8.52;5.15;;;20.40;99.90;;;;;;5015194;28;20506;-76
2023/06/26 05:59:55;;;;;;;6.32;4.88;;;20.70;99.90;;;;;;5014527;28;20026;-77
2023/06/26 06:02:21;;;;;;;5.47;4.22;;;21.00;99.90;;;;;;5015114;28;20077;-76
2023/06/26 06:04:47;;;;;;;6.32;4.93;;;21.30;99.90;;;;;;5017659;28;20049;-76
2023/06/26 06:07:13;;;;;;;5.95;4.72;;;21.40;99.90;;;;;;5017575;28;20457;-77
2023/06/26 06:09:38;;;;;;;5.22;4.50;;;21.50;99.20;;;;;;5018346;28;20018;-77
2023/06/26 06:12:07;;;;;;;6.38;4.70;;;21.50;99.20;;;;;;5018882;28;20065;-78
2023/06/26 06:14:34;;;;;;;6.68;4.75;;;21.60;99.20;;;;;;5018199;28;20034;-76
2023/06/26 06:17:00;;;;;;;7.53;5.63;;;21.60;99.10;;;;;;5017629;28;20022;-78
2023/06/26 06:19:26;;;;;;;6.28;5.03;;;21.70;97.20;;;;;;5001887;28;20494;-78
2023/06/26 06:21:51;;;;;;;8.40;5.32;;;21.70;97.40;;;;;;5019766;28;20029;-78
2023/06/26 06:24:17;;;;;;;6.32;4.60;;;21.80;98.20;;;;;;5019332;28;20033;-78
2023/06/26 06:26:43;;;;;;;7.35;5.13;;;22.00;97.40;;;;;;5018491;28;20387;-76
2023/06/26 06:29:09;;;;;;;6.10;5.10;;;22.20;96.80;;;;;;5014521;28;20022;-76
2023/06/26 06:31:35;;;;;;;9.88;4.95;;;22.40;96.20;;;;;;5015273;28;20034;-77
2023/06/26 06:34:00;;;;;;;5.70;4.32;;;22.60;95.30;;;;;;5014759;28;20529;-77
2023/06/26 06:36:26;;;;;;;6.28;4.40;;;22.80;94.80;;;;;;5015591;28;20034;-77
2023/06/26 06:38:52;;;;;;;4.45;3.65;;;22.90;94.50;;;;;;5015526;28;20022;-77
2023/06/26 06:41:17;;;;;;;5.18;4.32;;;23.10;93.50;;;;;;5015139;28;20026;-77
2023/06/26 06:43:43;;;;;;;6.35;5.15;;;23.20;92.20;;;;;;5015578;28;20080;-76
2023/06/26 06:46:09;;;;;;;4.97;3.67;;;23.40;93.60;;;;;;5015005;28;20026;-77
2023/06/26 06:48:35;;;;;;;5.10;3.67;;;23.50;91.50;;;;;;5030848;28;20121;-76
2023/06/26 06:51:01;;;;;;;3.58;3.17;;;23.70;88.40;;;;;;5013845;28;20030;-76
2023/06/26 06:53:26;;;;;;;5.00;3.33;;;23.70;84.00;;;;;;5014906;28;20034;-76
2023/06/26 06:55:52;;;;;;;4.28;3.70;;;23.80;84.50;;;;;;5014826;28;20029;-76
2023/06/26 06:58:22;;;;;;;8.90;3.85;;;23.90;85.80;;;;;;5015163;28;20061;-76
2023/06/26 07:00:48;;;;;;;3.13;2.80;;;24.20;86.90;;;;;;5016798;28;20240;-76
2023/06/26 07:03:14;;;;;;;9.98;3.42;;;24.40;84.70;;;;;;5017394;28;20030;-76
2023/06/26 07:05:41;;;;;;;4.60;3.50;;;24.80;84.70;;;;;;5016753;28;20029;-76
2023/06/26 07:08:08;;;;;;;4.28;3.25;;;25.00;82.30;;;;;;5015714;28;20509;-76
2023/06/26 07:10:33;;;;;;;4.22;3.67;;;25.00;79.30;;;;;;5016810;28;20014;-77
2023/06/26 07:12:59;;;;;;;5.13;3.60;;;24.90;79.60;;;;;;5016337;28;20079;-77
2023/06/26 07:15:25;;;;;;;3.88;3.45;;;25.00;79.30;;;;;;5016744;28;20028;-76
2023/06/26 07:17:50;;;;;;;3.67;2.63;;;25.10;78.60;;;;;;5009254;28;20376;-76
2023/06/26 07:20:16;;;;;;;5.20;2.95;;;25.20;80.50;;;;;;5014565;28;20033;-78
2023/06/26 07:22:44;;;;;;;4.40;3.42;;;25.30;79.80;;;;;;5014722;28;20029;-77
2023/06/26 07:25:10;;;;;;;4.35;3.08;;;25.50;80.40;;;;;;5016531;28;20014;-76
2023/06/26 07:27:40;;;;;;;4.82;3.63;;;25.60;79.90;;;;;;5014635;28;20577;-76
2023/06/26 07:30:10;;;;;;;4.50;3.10;;;25.70;79.70;;;;;;5016349;28;20024;-76
2023/06/26 07:32:36;;;;;;;4.00;2.80;;;26.00;79.30;;;;;;5017459;28;20025;-76
2023/06/26 07:35:02;;;;;;;3.33;2.88;;;26.10;76.10;;;;;;4996988;28;20038;-76
2023/06/26 07:37:28;;;;;;;3.58;2.72;;;26.00;74.50;;;;;;4995681;28;20029;-76
2023/06/26 07:39:53;;;;;;;2.42;2.22;;;26.00;73.80;;;;;;4996351;28;20217;-76
2023/06/26 07:42:19;;;;;;;4.43;3.17;;;26.10;74.30;;;;;;4994914;28;20030;-76
2023/06/26 07:44:45;;;;;;;3.60;2.47;;;26.20;72.50;;;;;;4995307;28;20025;-76
2023/06/26 07:47:11;;;;;;;2.65;2.45;;;26.40;71.90;;;;;;4994718;28;20475;-76
2023/06/26 07:49:38;;;;;;;3.13;2.78;;;26.60;70.70;;;;;;4994008;28;20018;-75
2023/06/26 07:52:05;;;;;;;3.53;2.58;;;26.80;68.50;;;;;;4994852;28;20065;-75
2023/06/26 07:54:31;;;;;;;3.47;2.28;;;27.00;69.00;;;;;;4994871;28;20073;-76
2023/06/26 07:56:58;;;;;;;4.07;2.53;;;27.00;66.20;;;;;;4997416;28;20031;-75
2023/06/26 07:59:26;;;;;;;3.00;2.65;;;27.00;64.70;;;;;;5012739;28;20067;-75
2023/06/26 08:01:53;;;;;;;2.70;2.35;;;27.10;63.30;;;;;;5015613;28;20483;-75
2023/06/26 08:04:20;;;;;;;2.28;2.08;;;27.20;63.20;;;;;;5015396;28;20018;-75
2023/06/26 08:06:48;;;;;;;2.33;2.13;;;27.20;62.20;;;;;;5012555;28;20391;-77
2023/06/26 08:09:14;;;;;;;3.83;2.38;;;27.30;62.90;;;;;;5012757;28;20029;-75
2023/06/26 08:11:40;;;;;;;3.13;2.35;;;27.20;61.20;;;;;;5012923;28;20163;-77
2023/06/26 08:14:05;;;;;;;2.60;2.35;;;27.30;60.30;;;;;;5013213;28;20048;-75
2023/06/26 08:16:31;;;;;;;3.15;2.50;;;27.30;59.70;;;;;;5014593;28;20403;-76
2023/06/26 08:18:56;;;;;;;5.10;2.50;;;27.50;61.00;;;;;;5015077;28;20030;-76
2023/06/26 08:21:22;;;;;;;2.90;2.38;;;27.50;60.10;;;;;;5015070;28;20479;-75
2023/06/26 08:23:48;;;;;;;2.45;2.25;;;27.50;58.10;;;;;;5013168;28;20030;-76
2023/06/26 08:26:14;;;;;;;4.22;2.13;;;27.40;57.30;;;;;;5013829;28;20179;-76
2023/06/26 08:28:39;;;;;;;2.85;2.13;;;27.30;59.00;;;;;;5014894;28;20022;-76
2023/06/26 08:31:05;;;;;;;4.88;2.15;;;27.30;58.30;;;;;;5014590;28;20030;-76
2023/06/26 08:33:30;;;;;;;2.72;1.70;;;27.30;58.10;;;;;;5013658;28;20168;-76
2023/06/26 08:35:56;;;;;;;3.88;2.53;;;27.40;60.20;;;;;;5013154;28;20164;-77
2023/06/26 08:38:22;;;;;;;6.75;2.70;;;27.60;58.40;;;;;;5010092;28;20030;-76
2023/06/26 08:40:48;;;;;;;3.17;2.67;;;27.70;62.10;;;;;;5014259;28;20446;-76
2023/06/26 08:43:14;;;;;;;3.33;2.97;;;27.70;62.10;;;;;;5015060;28;20479;-75
2023/06/26 08:45:39;;;;;;;3.50;2.33;;;27.80;62.00;;;;;;5012154;28;20021;-76
2023/06/26 08:48:08;;;;;;;2.60;2.40;;;28.00;62.70;;;;;;5013734;28;20025;-77
2023/06/26 08:50:36;;;;;;;3.90;2.63;;;28.00;60.80;;;;;;5013962;28;20022;-75
2023/06/26 08:53:11;;;;;;;3.03;2.72;;;28.10;61.30;;;;;;5013608;28;20060;-76
2023/06/26 08:55:40;;;;;;;3.53;2.83;;;28.10;61.00;;;;;;5014459;28;20026;-75
2023/06/26 08:58:06;;;;;;;4.15;2.65;;;28.10;61.60;;;;;;5014291;28;20022;-76
2023/06/26 09:00:32;;;;;;;2.95;2.58;;;28.10;63.10;;;;;;5014555;28;20372;-76
2023/06/26 09:02:59;;;;;;;6.60;2.78;;;28.00;60.70;;;;;;5016043;28;20054;-77
2023/06/26 09:05:27;;;;;;;2.28;2.00;;;27.90;60.90;;;;;;5017809;28;20022;-76
2023/06/26 09:07:55;;;;;;;2.90;2.63;;;28.10;61.60;;;;;;5015163;28;20037;-75
2023/06/26 09:10:21;;;;;;;4.38;2.50;;;28.10;61.20;;;;;;5017461;28;20018;-75
2023/06/26 09:12:48;;;;;;;2.58;2.38;;;28.30;60.60;;;;;;5016506;28;20178;-77
2023/06/26 09:15:20;;;;;;;4.07;2.35;;;28.30;57.60;;;;;;5015915;28;20064;-78
2023/06/26 09:17:46;;;;;;;3.00;2.38;;;28.30;56.20;;;;;;5016093;28;20458;-76
2023/06/26 09:20:14;;;;;;;2.80;2.47;;;28.30;56.70;;;;;;5017973;28;20446;-76
2023/06/26 09:22:41;;;;;;;2.55;2.33;;;28.40;57.90;;;;;;5017594;28;20018;-76
2023/06/26 09:25:07;;;;;;;3.53;2.63;;;28.50;57.90;;;;;;5016735;28;20028;-75
2023/06/26 09:27:37;;;;;;;4.32;2.90;;;28.50;55.30;;;;;;5016812;28;20029;-77
2023/06/26 09:30:04;;;;;;;3.13;2.45;;;28.50;57.00;;;;;;5015253;28;20033;-74
2023/06/26 09:32:30;;;;;;;2.40;2.20;;;28.60;54.80;;;;;;5016220;28;20029;-76
2023/06/26 09:34:56;;;;;;;4.28;3.00;;;28.50;54.00;;;;;;4998571;28;20030;-76
2023/06/26 09:37:22;;;;;;;2.03;1.90;;;28.40;54.70;;;;;;4997037;28;20030;-75
2023/06/26 09:39:49;;;;;;;2.53;2.13;;;28.40;56.90;;;;;;5016828;28;20079;-76
2023/06/26 09:42:15;;;;;;;3.08;2.45;;;28.40;55.00;;;;;;5014861;28;20375;-76
2023/06/26 09:44:45;;;;;;;5.03;2.83;;;28.30;55.40;;;;;;5015594;28;20022;-77
2023/06/26 09:47:10;;;;;;;3.13;2.50;;;28.40;56.90;;;;;;5016040;28;20378;-75
2023/06/26 09:49:36;;;;;;;4.53;2.53;;;28.60;57.00;;;;;;5014032;28;20026;-76
2023/06/26 09:52:02;;;;;;;3.85;3.10;;;28.50;56.90;;;;;;5015948;28;20210;-76
2023/06/26 09:54:30;;;;;;;2.67;2.28;;;28.50;56.30;;;;;;5016321;28;20077;-75
2023/06/26 09:57:06;;;;;;;4.20;2.13;;;28.70;58.30;;;;;;5015693;28;20026;-75
2023/06/26 09:59:33;;;;;;;2.92;2.63;;;28.60;57.70;;;;;;5015604;28;20022;-77
2023/06/26 10:01:59;;;;;;;3.45;2.80;;;28.40;55.90;;;;;;5015371;28;20022;-75
2023/06/26 10:04:25;;;;;;;3.22;2.70;;;28.60;58.60;;;;;;5015693;28;20092;-74
2023/06/26 10:06:54;;;;;;;2.35;2.05;;;28.80;57.10;;;;;;5015355;28;20499;-75
2023/06/26 10:09:21;;;;;;;6.07;2.45;;;29.00;56.80;;;;;;5015782;28;20096;-76
2023/06/26 10:11:49;;;;;;;3.33;2.40;;;29.00;55.10;;;;;;5015303;28;20026;-75
2023/06/26 10:14:15;;;;;;;2.85;2.40;;;28.90;55.40;;;;;;5016341;28;20479;-75
2023/06/26 10:16:42;;;;;;;5.20;2.50;;;29.00;56.90;;;;;;5014509;28;20030;-75
2023/06/26 10:19:11;;;;;;;2.85;2.63;;;28.90;55.10;;;;;;5015103;28;20052;-75
2023/06/26 10:21:38;;;;;;;3.20;2.65;;;28.80;58.30;;;;;;5013536;28;20068;-76
2023/06/26 10:24:06;;;;;;;3.78;2.55;;;28.90;58.30;;;;;;5015472;28;20022;-75
2023/06/26 10:26:38;;;;;;;2.95;2.65;;;28.90;56.00;;;;;;5014104;28;20022;-77
2023/06/26 10:29:05;;;;;;;2.83;2.53;;;28.80;57.10;;;;;;5015253;28;20033;-75
2023/06/26 10:31:32;;;;;;;5.40;3.28;;;28.50;58.00;;;;;;5015223;28;20099;-76
2023/06/26 10:33:58;;;;;;;2.92;2.42;;;28.50;57.60;;;;;;5015174;28;20030;-77
2023/06/26 10:36:29;;;;;;;2.75;2.53;;;28.70;58.90;;;;;;5027671;28;20513;-74
2023/06/26 10:38:57;;;;;;;2.70;2.50;;;28.80;59.20;;;;;;5034675;28;20037;-76
2023/06/26 10:41:24;;;;;;;5.85;2.53;;;29.00;57.90;;;;;;5033387;28;20080;-75
2023/06/26 10:43:59;;;;;;;4.65;2.72;;;29.20;58.80;;;;;;5034197;28;20022;-76
2023/06/26 10:46:25;;;;;;;2.65;2.45;;;29.40;58.20;;;;;;5034961;28;20025;-75
2023/06/26 10:49:01;;;;;;;3.33;3.00;;;29.60;58.20;;;;;;5034856;28;20041;-77
2023/06/26 10:51:27;;;;;;;3.92;2.80;;;29.50;54.80;;;;;;5033616;28;20029;-75
2023/06/26 10:53:57;;;;;;;4.10;3.47;;;29.70;54.70;;;;;;5034276;28;20478;-75
2023/06/26 10:56:42;;;;;;;3.03;2.40;;;29.60;57.30;;;;;;5034437;28;20084;-76
2023/06/26 10:59:15;;;;;;;3.03;2.72;;;29.80;57.30;;;;;;5033296;28;20031;-76
2023/06/26 11:01:44;;;;;;;3.03;2.63;;;29.90;57.20;;;;;;5034501;28;20383;-76
2023/06/26 11:04:14;;;;;;;2.97;2.72;;;30.10;57.30;;;;;;5033219;28;20035;-75
2023/06/26 11:06:39;;;;;;;3.03;2.75;;;30.10;56.30;;;;;;5034366;28;20025;-76
2023/06/26 11:09:05;;;;;;;3.10;2.80;;;30.10;53.80;;;;;;5032986;28;20408;-76
2023/06/26 11:11:58;;;;;;;3.17;2.80;;;30.20;56.10;;;;;;5033226;28;20025;-76
2023/06/26 11:14:26;;;;;;;3.45;2.42;;;30.00;55.90;;;;;;5033348;28;20375;-76
2023/06/26 11:16:52;;;;;;;3.17;2.25;;;29.90;56.00;;;;;;5033018;28;20557;-76
2023/06/26 11:19:19;;;;;;;3.78;2.55;;;30.00;55.60;;;;;;5034828;28;20104;-77
2023/06/26 11:21:45;;;;;;;6.18;2.78;;;29.80;54.70;;;;;;5034817;28;20025;-76
2023/06/26 11:24:12;;;;;;;3.30;3.00;;;30.10;55.00;;;;;;5032304;28;20075;-76
2023/06/26 11:26:44;;;;;;;2.50;2.30;;;30.20;55.60;;;;;;5034497;28;20022;-76
2023/06/26 11:29:10;;;;;;;2.67;2.42;;;30.20;55.40;;;;;;5032979;28;20410;-77
2023/06/26 11:31:38;;;;;;;2.95;2.38;;;29.90;55.20;;;;;;5034768;28;20106;-78
2023/06/26 11:34:12;;;;;;;2.92;2.65;;;30.00;55.60;;;;;;5035947;28;20030;-76
2023/06/26 11:36:41;;;;;;;3.17;2.47;;;30.40;56.70;;;;;;5035020;28;20021;-77
2023/06/26 11:39:08;;;;;;;3.17;2.75;;;30.50;53.80;;;;;;5033925;28;20034;-77
2023/06/26 11:41:35;;;;;;;3.25;2.53;;;29.90;52.40;;;;;;5035389;28;20125;-77
2023/06/26 11:44:09;;;;;;;3.10;2.60;;;29.40;54.00;;;;;;5033244;28;20017;-77
2023/06/26 11:46:35;;;;;;;2.92;2.50;;;29.70;54.40;;;;;;5034026;28;20053;-76
2023/06/26 11:49:07;;;;;;;3.05;2.75;;;29.70;54.60;;;;;;5032892;28;20053;-76
2023/06/26 11:51:33;;;;;;;2.90;2.22;;;29.90;55.00;;;;;;5033119;28;20029;-76
2023/06/26 11:54:04;;;;;;;3.00;2.53;;;29.90;54.40;;;;;;5033509;28;20029;-77
2023/06/26 11:56:31;;;;;;;2.67;2.35;;;30.10;53.80;;;;;;5033772;28;20026;-76
2023/06/26 11:59:04;;;;;;;5.85;2.90;;;30.00;53.40;;;;;;5035527;28;20498;-77
2023/06/26 12:01:38;;;;;;;3.22;2.38;;;30.10;54.40;;;;;;5034657;28;20029;-77
2023/06/26 12:04:06;;;;;;;3.13;2.83;;;30.20;52.70;;;;;;5031529;28;20028;-78
2023/06/26 12:06:37;;;;;;;3.67;2.83;;;29.80;52.00;;;;;;5032901;28;20509;-77
2023/06/26 12:09:07;;;;;;;2.70;2.50;;;29.90;54.00;;;;;;4992552;28;1126970;-77
2023/06/26 12:11:35;;;;;;;4.70;2.58;;;29.90;55.60;;;;;;5033015;28;20044;-77
2023/06/26 12:14:01;;;;;;;3.40;2.75;;;30.10;55.30;;;;;;5033080;28;20529;-77
2023/06/26 12:16:31;;;;;;;2.75;2.45;;;30.10;54.80;;;;;;5033037;28;20089;-77
2023/06/26 12:19:00;;;;;;;3.45;2.15;;;30.30;56.00;;;;;;5032809;28;20486;-77
2023/06/26 12:21:29;;;;;;;2.40;2.03;;;30.60;54.50;;;;;;5033013;28;20030;-77
2023/06/26 12:23:59;;;;;;;2.50;2.30;;;30.90;52.40;;;;;;5033088;28;20402;-76
2023/06/26 12:26:26;;;;;;;4.68;2.47;;;31.20;52.00;;;;;;5031750;28;20516;-77
2023/06/26 12:28:52;;;;;;;2.17;2.00;;;31.00;49.70;;;;;;5032323;28;20112;-76
2023/06/26 12:31:21;;;;;;;2.47;2.28;;;31.20;52.60;;;;;;5034088;28;20548;-78
2023/06/26 12:33:47;;;;;;;2.80;2.33;;;31.60;53.50;;;;;;5033613;28;20032;-77
2023/06/26 12:36:13;;;;;;;4.03;2.80;;;31.90;53.10;;;;;;5033541;28;20022;-76
2023/06/26 12:38:40;;;;;;;3.47;2.78;;;31.70;49.70;;;;;;5032232;28;20025;-76
2023/06/26 12:41:13;;;;;;;2.20;1.80;;;31.70;51.60;;;;;;5031631;28;20437;-76
2023/06/26 12:43:39;;;;;;;2.75;2.55;;;31.90;49.50;;;;;;5033085;28;20429;-77
2023/06/26 12:46:06;;;;;;;5.30;2.97;;;31.70;49.30;;;;;;5033160;28;20080;-80